Terminal Aerodrome Forecast
Issued by NWS

Home | Current Version | Previous Version | Text Only | Print | Product List | Glossary On
Versions: 1 2 3 4 5 6 7 8 9 10 11 12 13 14 15 16 17 18 19 20 21 22 23 24 25
750
FTUS46 KSGX 112321
TAFSAN
TAF
KSAN 112321Z 1200/1306 31008KT P6SM SCT250
     FM120100 VRB03KT P6SM FEW250
     FM122000 31008KT P6SM FEW250
     FM130100 VRB03KT P6SM FEW250=

USA.gov is the U.S. government's official web portal to all federal, state and local government web resources and services.